sensor_id;sensor_type;location;lat;lon;timestamp;P1;durP1;ratioP1;P2;durP2;ratioP2
74371;SDS011;62885;51.374;6.170;2024-02-14T00:00:11;7.25;;;1.52;;
74371;SDS011;62885;51.374;6.170;2024-02-14T00:02:40;3.42;;;1.75;;
74371;SDS011;62885;51.374;6.170;2024-02-14T00:05:08;3.00;;;1.55;;
74371;SDS011;62885;51.374;6.170;2024-02-14T00:07:35;4.55;;;1.58;;
74371;SDS011;62885;51.374;6.170;2024-02-14T00:10:00;3.42;;;1.42;;
74371;SDS011;62885;51.374;6.170;2024-02-14T00:12:26;2.45;;;1.20;;
74371;SDS011;62885;51.374;6.170;2024-02-14T00:14:51;3.55;;;1.35;;
74371;SDS011;62885;51.374;6.170;2024-02-14T00:17:16;3.40;;;1.38;;
74371;SDS011;62885;51.374;6.170;2024-02-14T00:19:42;2.85;;;1.40;;
74371;SDS011;62885;51.374;6.170;2024-02-14T00:22:07;2.90;;;1.23;;
74371;SDS011;62885;51.374;6.170;2024-02-14T00:24:32;4.95;;;1.95;;
74371;SDS011;62885;51.374;6.170;2024-02-14T00:26:59;1.88;;;1.13;;
74371;SDS011;62885;51.374;6.170;2024-02-14T00:29:25;5.57;;;1.40;;
74371;SDS011;62885;51.374;6.170;2024-02-14T00:31:51;3.60;;;1.15;;
74371;SDS011;62885;51.374;6.170;2024-02-14T00:34:16;3.67;;;1.30;;
74371;SDS011;62885;51.374;6.170;2024-02-14T00:36:41;3.70;;;1.35;;
74371;SDS011;62885;51.374;6.170;2024-02-14T00:39:07;4.05;;;1.50;;
74371;SDS011;62885;51.374;6.170;2024-02-14T00:41:34;4.55;;;1.77;;
74371;SDS011;62885;51.374;6.170;2024-02-14T00:44:00;2.97;;;1.23;;
74371;SDS011;62885;51.374;6.170;2024-02-14T00:46:25;3.65;;;1.50;;
74371;SDS011;62885;51.374;6.170;2024-02-14T00:48:51;3.95;;;1.33;;
74371;SDS011;62885;51.374;6.170;2024-02-14T00:51:16;3.25;;;1.33;;
74371;SDS011;62885;51.374;6.170;2024-02-14T00:53:41;4.35;;;1.75;;
74371;SDS011;62885;51.374;6.170;2024-02-14T00:56:07;3.03;;;1.30;;
74371;SDS011;62885;51.374;6.170;2024-02-14T00:58:33;4.90;;;1.55;;
74371;SDS011;62885;51.374;6.170;2024-02-14T01:00:58;2.60;;;1.40;;
74371;SDS011;62885;51.374;6.170;2024-02-14T01:03:24;3.35;;;1.20;;
74371;SDS011;62885;51.374;6.170;2024-02-14T01:05:49;3.22;;;1.50;;
74371;SDS011;62885;51.374;6.170;2024-02-14T01:08:14;2.33;;;1.20;;
74371;SDS011;62885;51.374;6.170;2024-02-14T01:10:40;6.03;;;1.40;;
74371;SDS011;62885;51.374;6.170;2024-02-14T01:13:05;1.75;;;1.08;;
74371;SDS011;62885;51.374;6.170;2024-02-14T01:15:31;1.92;;;1.10;;
74371;SDS011;62885;51.374;6.170;2024-02-14T01:17:58;3.67;;;1.50;;
74371;SDS011;62885;51.374;6.170;2024-02-14T01:20:23;4.18;;;1.45;;
74371;SDS011;62885;51.374;6.170;2024-02-14T01:22:48;1.95;;;1.10;;
74371;SDS011;62885;51.374;6.170;2024-02-14T01:25:14;6.20;;;1.65;;
74371;SDS011;62885;51.374;6.170;2024-02-14T01:27:39;2.83;;;1.25;;
74371;SDS011;62885;51.374;6.170;2024-02-14T01:30:06;2.58;;;1.20;;
74371;SDS011;62885;51.374;6.170;2024-02-14T01:32:32;2.60;;;1.35;;
74371;SDS011;62885;51.374;6.170;2024-02-14T01:34:57;4.90;;;1.50;;
74371;SDS011;62885;51.374;6.170;2024-02-14T01:37:23;3.67;;;1.52;;
74371;SDS011;62885;51.374;6.170;2024-02-14T01:39:48;3.25;;;1.30;;
74371;SDS011;62885;51.374;6.170;2024-02-14T01:42:14;4.10;;;1.25;;
74371;SDS011;62885;51.374;6.170;2024-02-14T01:44:39;1.70;;;1.10;;
74371;SDS011;62885;51.374;6.170;2024-02-14T01:47:05;2.38;;;1.27;;
74371;SDS011;62885;51.374;6.170;2024-02-14T01:49:31;6.35;;;1.45;;
74371;SDS011;62885;51.374;6.170;2024-02-14T01:51:59;2.78;;;1.10;;
74371;SDS011;62885;51.374;6.170;2024-02-14T01:54:27;2.92;;;1.42;;
74371;SDS011;62885;51.374;6.170;2024-02-14T01:56:53;3.33;;;1.40;;
74371;SDS011;62885;51.374;6.170;2024-02-14T01:59:20;4.43;;;1.38;;
74371;SDS011;62885;51.374;6.170;2024-02-14T02:01:45;4.07;;;1.55;;
74371;SDS011;62885;51.374;6.170;2024-02-14T02:04:11;4.60;;;1.27;;
74371;SDS011;62885;51.374;6.170;2024-02-14T02:06:37;3.03;;;1.30;;
74371;SDS011;62885;51.374;6.170;2024-02-14T02:09:02;4.13;;;1.40;;
74371;SDS011;62885;51.374;6.170;2024-02-14T02:11:28;3.08;;;1.30;;
74371;SDS011;62885;51.374;6.170;2024-02-14T02:13:53;2.53;;;1.23;;
74371;SDS011;62885;51.374;6.170;2024-02-14T02:16:20;3.65;;;1.75;;
74371;SDS011;62885;51.374;6.170;2024-02-14T02:18:46;3.33;;;1.42;;
74371;SDS011;62885;51.374;6.170;2024-02-14T02:21:13;2.75;;;1.10;;
74371;SDS011;62885;51.374;6.170;2024-02-14T02:23:39;5.85;;;1.42;;
74371;SDS011;62885;51.374;6.170;2024-02-14T02:26:06;4.18;;;1.30;;
74371;SDS011;62885;51.374;6.170;2024-02-14T02:28:32;3.35;;;1.50;;
74371;SDS011;62885;51.374;6.170;2024-02-14T02:30:57;3.35;;;1.45;;
74371;SDS011;62885;51.374;6.170;2024-02-14T02:33:22;1.38;;;1.00;;
74371;SDS011;62885;51.374;6.170;2024-02-14T02:35:48;2.92;;;1.30;;
74371;SDS011;62885;51.374;6.170;2024-02-14T02:38:15;2.70;;;1.42;;
74371;SDS011;62885;51.374;6.170;2024-02-14T02:40:41;3.17;;;1.52;;
74371;SDS011;62885;51.374;6.170;2024-02-14T02:43:07;3.75;;;1.20;;
74371;SDS011;62885;51.374;6.170;2024-02-14T02:45:32;3.00;;;1.52;;
74371;SDS011;62885;51.374;6.170;2024-02-14T02:47:58;3.40;;;1.40;;
74371;SDS011;62885;51.374;6.170;2024-02-14T02:50:25;2.97;;;1.17;;
74371;SDS011;62885;51.374;6.170;2024-02-14T02:52:50;6.38;;;1.63;;
74371;SDS011;62885;51.374;6.170;2024-02-14T02:55:16;2.75;;;1.27;;
74371;SDS011;62885;51.374;6.170;2024-02-14T02:57:43;3.30;;;1.50;;
74371;SDS011;62885;51.374;6.170;2024-02-14T03:00:10;2.60;;;1.60;;
74371;SDS011;62885;51.374;6.170;2024-02-14T03:02:37;3.58;;;1.20;;
74371;SDS011;62885;51.374;6.170;2024-02-14T03:05:06;5.63;;;1.50;;
74371;SDS011;62885;51.374;6.170;2024-02-14T03:07:35;2.97;;;1.35;;
74371;SDS011;62885;51.374;6.170;2024-02-14T03:10:04;4.50;;;1.33;;
74371;SDS011;62885;51.374;6.170;2024-02-14T03:12:30;3.85;;;1.30;;
74371;SDS011;62885;51.374;6.170;2024-02-14T03:14:57;2.55;;;1.58;;
74371;SDS011;62885;51.374;6.170;2024-02-14T03:17:23;2.53;;;1.45;;
74371;SDS011;62885;51.374;6.170;2024-02-14T03:19:48;3.78;;;1.45;;
74371;SDS011;62885;51.374;6.170;2024-02-14T03:22:16;4.25;;;1.98;;
74371;SDS011;62885;51.374;6.170;2024-02-14T03:24:44;3.38;;;1.42;;
74371;SDS011;62885;51.374;6.170;2024-02-14T03:27:11;3.75;;;1.50;;
74371;SDS011;62885;51.374;6.170;2024-02-14T03:29:37;4.80;;;1.80;;
74371;SDS011;62885;51.374;6.170;2024-02-14T03:32:04;2.95;;;1.60;;
74371;SDS011;62885;51.374;6.170;2024-02-14T03:34:33;3.58;;;1.27;;
74371;SDS011;62885;51.374;6.170;2024-02-14T03:37:00;3.15;;;1.20;;
74371;SDS011;62885;51.374;6.170;2024-02-14T03:39:27;2.88;;;1.30;;
74371;SDS011;62885;51.374;6.170;2024-02-14T03:41:53;6.35;;;1.95;;
74371;SDS011;62885;51.374;6.170;2024-02-14T03:44:19;6.03;;;1.45;;
74371;SDS011;62885;51.374;6.170;2024-02-14T03:46:45;2.55;;;1.42;;
74371;SDS011;62885;51.374;6.170;2024-02-14T03:49:12;2.20;;;1.33;;
74371;SDS011;62885;51.374;6.170;2024-02-14T03:51:38;3.70;;;1.75;;
74371;SDS011;62885;51.374;6.170;2024-02-14T03:54:03;3.95;;;1.38;;
74371;SDS011;62885;51.374;6.170;2024-02-14T03:56:28;3.83;;;1.55;;
74371;SDS011;62885;51.374;6.170;2024-02-14T03:58:55;3.90;;;1.60;;
74371;SDS011;62885;51.374;6.170;2024-02-14T04:01:20;2.95;;;1.65;;
74371;SDS011;62885;51.374;6.170;2024-02-14T04:03:46;3.53;;;1.70;;
74371;SDS011;62885;51.374;6.170;2024-02-14T04:06:13;5.68;;;1.60;;
74371;SDS011;62885;51.374;6.170;2024-02-14T04:08:38;2.75;;;1.67;;
74371;SDS011;62885;51.374;6.170;2024-02-14T04:11:03;2.58;;;1.45;;
74371;SDS011;62885;51.374;6.170;2024-02-14T04:13:29;4.50;;;1.63;;
74371;SDS011;62885;51.374;6.170;2024-02-14T04:15:54;3.88;;;1.60;;
74371;SDS011;62885;51.374;6.170;2024-02-14T04:18:19;4.13;;;1.60;;
74371;SDS011;62885;51.374;6.170;2024-02-14T04:20:45;4.80;;;1.90;;
74371;SDS011;62885;51.374;6.170;2024-02-14T04:23:10;2.72;;;1.48;;
74371;SDS011;62885;51.374;6.170;2024-02-14T04:25:36;2.42;;;1.50;;
74371;SDS011;62885;51.374;6.170;2024-02-14T04:28:02;3.95;;;1.70;;
74371;SDS011;62885;51.374;6.170;2024-02-14T04:30:28;6.05;;;1.77;;
74371;SDS011;62885;51.374;6.170;2024-02-14T04:32:53;4.20;;;1.63;;
74371;SDS011;62885;51.374;6.170;2024-02-14T04:35:21;4.75;;;2.13;;
74371;SDS011;62885;51.374;6.170;2024-02-14T04:37:47;2.92;;;1.55;;
74371;SDS011;62885;51.374;6.170;2024-02-14T04:40:14;7.00;;;1.83;;
74371;SDS011;62885;51.374;6.170;2024-02-14T04:42:40;3.45;;;1.52;;
74371;SDS011;62885;51.374;6.170;2024-02-14T04:45:06;4.32;;;1.83;;
74371;SDS011;62885;51.374;6.170;2024-02-14T04:47:33;3.53;;;1.85;;
74371;SDS011;62885;51.374;6.170;2024-02-14T04:49:58;4.50;;;1.70;;
74371;SDS011;62885;51.374;6.170;2024-02-14T04:52:24;4.22;;;1.98;;
74371;SDS011;62885;51.374;6.170;2024-02-14T04:54:50;3.67;;;1.70;;
74371;SDS011;62885;51.374;6.170;2024-02-14T04:57:15;4.22;;;1.90;;
74371;SDS011;62885;51.374;6.170;2024-02-14T04:59:41;3.40;;;1.48;;
74371;SDS011;62885;51.374;6.170;2024-02-14T05:02:06;4.43;;;1.70;;
74371;SDS011;62885;51.374;6.170;2024-02-14T05:04:32;4.28;;;1.55;;
74371;SDS011;62885;51.374;6.170;2024-02-14T05:07:00;6.25;;;1.92;;
74371;SDS011;62885;51.374;6.170;2024-02-14T05:09:25;2.60;;;1.48;;
74371;SDS011;62885;51.374;6.170;2024-02-14T05:11:50;3.97;;;1.60;;
74371;SDS011;62885;51.374;6.170;2024-02-14T05:14:16;4.40;;;1.70;;
74371;SDS011;62885;51.374;6.170;2024-02-14T05:16:41;4.20;;;2.00;;
74371;SDS011;62885;51.374;6.170;2024-02-14T05:19:06;3.20;;;1.77;;
74371;SDS011;62885;51.374;6.170;2024-02-14T05:21:32;4.10;;;1.80;;
74371;SDS011;62885;51.374;6.170;2024-02-14T05:23:57;3.97;;;1.90;;
74371;SDS011;62885;51.374;6.170;2024-02-14T05:26:23;4.30;;;2.30;;
74371;SDS011;62885;51.374;6.170;2024-02-14T05:28:48;4.18;;;2.00;;
74371;SDS011;62885;51.374;6.170;2024-02-14T05:31:14;6.47;;;2.63;;
74371;SDS011;62885;51.374;6.170;2024-02-14T05:33:40;6.20;;;2.63;;
74371;SDS011;62885;51.374;6.170;2024-02-14T05:36:05;4.22;;;2.33;;
74371;SDS011;62885;51.374;6.170;2024-02-14T05:38:31;4.55;;;2.20;;
74371;SDS011;62885;51.374;6.170;2024-02-14T05:40:58;4.53;;;2.28;;
74371;SDS011;62885;51.374;6.170;2024-02-14T05:43:24;7.60;;;2.47;;
74371;SDS011;62885;51.374;6.170;2024-02-14T05:45:51;5.28;;;2.22;;
74371;SDS011;62885;51.374;6.170;2024-02-14T05:48:19;4.05;;;2.30;;
74371;SDS011;62885;51.374;6.170;2024-02-14T05:50:45;7.65;;;2.78;;
74371;SDS011;62885;51.374;6.170;2024-02-14T05:53:10;8.50;;;2.60;;
74371;SDS011;62885;51.374;6.170;2024-02-14T05:55:37;5.70;;;2.55;;
74371;SDS011;62885;51.374;6.170;2024-02-14T05:58:03;4.80;;;2.40;;
74371;SDS011;62885;51.374;6.170;2024-02-14T06:00:28;4.53;;;2.47;;
74371;SDS011;62885;51.374;6.170;2024-02-14T06:02:54;6.43;;;2.58;;
74371;SDS011;62885;51.374;6.170;2024-02-14T06:05:20;5.13;;;2.22;;
74371;SDS011;62885;51.374;6.170;2024-02-14T06:07:45;5.82;;;2.60;;
74371;SDS011;62885;51.374;6.170;2024-02-14T06:10:11;5.78;;;2.97;;
74371;SDS011;62885;51.374;6.170;2024-02-14T06:12:36;5.55;;;2.25;;
74371;SDS011;62885;51.374;6.170;2024-02-14T06:15:02;5.20;;;2.40;;
74371;SDS011;62885;51.374;6.170;2024-02-14T06:17:28;6.28;;;2.63;;
74371;SDS011;62885;51.374;6.170;2024-02-14T06:19:53;3.35;;;2.05;;
74371;SDS011;62885;51.374;6.170;2024-02-14T06:22:19;5.10;;;2.00;;
74371;SDS011;62885;51.374;6.170;2024-02-14T06:24:45;6.13;;;2.75;;
74371;SDS011;62885;51.374;6.170;2024-02-14T06:27:13;5.05;;;2.53;;
74371;SDS011;62885;51.374;6.170;2024-02-14T06:29:41;8.05;;;3.22;;
74371;SDS011;62885;51.374;6.170;2024-02-14T06:32:11;6.80;;;3.22;;
74371;SDS011;62885;51.374;6.170;2024-02-14T06:34:37;3.92;;;2.50;;
74371;SDS011;62885;51.374;6.170;2024-02-14T06:37:03;5.65;;;3.03;;
74371;SDS011;62885;51.374;6.170;2024-02-14T06:39:29;3.58;;;2.10;;
74371;SDS011;62885;51.374;6.170;2024-02-14T06:41:54;7.30;;;2.97;;
74371;SDS011;62885;51.374;6.170;2024-02-14T06:44:19;8.05;;;3.10;;
74371;SDS011;62885;51.374;6.170;2024-02-14T06:46:45;4.57;;;2.47;;
74371;SDS011;62885;51.374;6.170;2024-02-14T06:49:10;7.05;;;3.10;;
74371;SDS011;62885;51.374;6.170;2024-02-14T06:51:36;6.35;;;2.90;;
74371;SDS011;62885;51.374;6.170;2024-02-14T06:54:01;5.43;;;2.85;;
74371;SDS011;62885;51.374;6.170;2024-02-14T06:56:29;4.88;;;2.42;;
74371;SDS011;62885;51.374;6.170;2024-02-14T06:58:55;6.15;;;2.53;;
74371;SDS011;62885;51.374;6.170;2024-02-14T07:01:24;5.65;;;2.47;;
74371;SDS011;62885;51.374;6.170;2024-02-14T07:03:53;4.97;;;2.55;;
74371;SDS011;62885;51.374;6.170;2024-02-14T07:06:20;7.45;;;3.00;;
74371;SDS011;62885;51.374;6.170;2024-02-14T07:08:47;5.32;;;2.40;;
74371;SDS011;62885;51.374;6.170;2024-02-14T07:11:12;6.45;;;3.10;;
74371;SDS011;62885;51.374;6.170;2024-02-14T07:13:38;6.78;;;3.13;;
74371;SDS011;62885;51.374;6.170;2024-02-14T07:16:03;5.22;;;2.60;;
74371;SDS011;62885;51.374;6.170;2024-02-14T07:18:29;5.70;;;2.63;;
74371;SDS011;62885;51.374;6.170;2024-02-14T07:20:54;7.45;;;3.55;;
74371;SDS011;62885;51.374;6.170;2024-02-14T07:23:19;6.05;;;3.10;;
74371;SDS011;62885;51.374;6.170;2024-02-14T07:25:45;6.90;;;3.10;;
74371;SDS011;62885;51.374;6.170;2024-02-14T07:28:11;11.07;;;3.15;;
74371;SDS011;62885;51.374;6.170;2024-02-14T07:30:36;6.75;;;2.92;;
74371;SDS011;62885;51.374;6.170;2024-02-14T07:33:02;6.22;;;3.25;;
74371;SDS011;62885;51.374;6.170;2024-02-14T07:35:27;5.05;;;2.45;;
74371;SDS011;62885;51.374;6.170;2024-02-14T07:37:53;5.72;;;2.60;;
74371;SDS011;62885;51.374;6.170;2024-02-14T07:40:19;4.90;;;2.60;;
74371;SDS011;62885;51.374;6.170;2024-02-14T07:42:44;7.90;;;3.08;;
74371;SDS011;62885;51.374;6.170;2024-02-14T07:45:09;7.72;;;3.17;;
74371;SDS011;62885;51.374;6.170;2024-02-14T07:47:35;6.95;;;3.30;;
74371;SDS011;62885;51.374;6.170;2024-02-14T07:50:00;5.72;;;2.67;;
74371;SDS011;62885;51.374;6.170;2024-02-14T07:52:27;8.98;;;3.25;;
74371;SDS011;62885;51.374;6.170;2024-02-14T07:54:53;7.20;;;2.75;;
74371;SDS011;62885;51.374;6.170;2024-02-14T07:57:19;6.40;;;2.97;;
74371;SDS011;62885;51.374;6.170;2024-02-14T07:59:47;6.95;;;2.88;;
74371;SDS011;62885;51.374;6.170;2024-02-14T08:02:12;4.95;;;2.50;;
74371;SDS011;62885;51.374;6.170;2024-02-14T08:04:37;6.72;;;2.38;;
74371;SDS011;62885;51.374;6.170;2024-02-14T08:07:03;6.18;;;2.80;;
74371;SDS011;62885;51.374;6.170;2024-02-14T08:09:29;7.13;;;2.28;;
74371;SDS011;62885;51.374;6.170;2024-02-14T08:11:54;7.53;;;3.40;;
74371;SDS011;62885;51.374;6.170;2024-02-14T08:14:20;5.97;;;3.08;;
74371;SDS011;62885;51.374;6.170;2024-02-14T08:16:45;6.65;;;3.13;;
74371;SDS011;62885;51.374;6.170;2024-02-14T08:19:10;7.22;;;2.67;;
74371;SDS011;62885;51.374;6.170;2024-02-14T08:21:36;5.88;;;2.47;;
74371;SDS011;62885;51.374;6.170;2024-02-14T08:24:01;8.27;;;2.92;;
74371;SDS011;62885;51.374;6.170;2024-02-14T08:26:27;5.78;;;2.22;;
74371;SDS011;62885;51.374;6.170;2024-02-14T08:28:52;6.32;;;3.05;;
74371;SDS011;62885;51.374;6.170;2024-02-14T08:31:19;6.95;;;2.65;;
74371;SDS011;62885;51.374;6.170;2024-02-14T08:33:45;6.35;;;2.80;;
74371;SDS011;62885;51.374;6.170;2024-02-14T08:36:10;5.30;;;2.10;;
74371;SDS011;62885;51.374;6.170;2024-02-14T08:38:35;6.63;;;2.03;;
74371;SDS011;62885;51.374;6.170;2024-02-14T08:41:04;4.55;;;2.30;;
74371;SDS011;62885;51.374;6.170;2024-02-14T08:43:30;5.35;;;2.47;;
74371;SDS011;62885;51.374;6.170;2024-02-14T08:45:55;4.55;;;2.33;;
74371;SDS011;62885;51.374;6.170;2024-02-14T08:48:22;5.78;;;1.90;;
74371;SDS011;62885;51.374;6.170;2024-02-14T08:50:48;5.28;;;2.20;;
74371;SDS011;62885;51.374;6.170;2024-02-14T08:53:13;5.13;;;2.40;;
74371;SDS011;62885;51.374;6.170;2024-02-14T08:55:42;4.93;;;2.38;;
74371;SDS011;62885;51.374;6.170;2024-02-14T08:58:08;4.43;;;1.95;;
74371;SDS011;62885;51.374;6.170;2024-02-14T09:00:36;4.97;;;1.98;;
74371;SDS011;62885;51.374;6.170;2024-02-14T09:03:03;3.78;;;2.00;;
74371;SDS011;62885;51.374;6.170;2024-02-14T09:05:29;4.47;;;1.80;;
74371;SDS011;62885;51.374;6.170;2024-02-14T09:07:55;5.90;;;2.20;;
74371;SDS011;62885;51.374;6.170;2024-02-14T09:10:20;5.57;;;2.35;;
74371;SDS011;62885;51.374;6.170;2024-02-14T09:12:46;4.82;;;2.10;;
74371;SDS011;62885;51.374;6.170;2024-02-14T09:15:12;8.35;;;2.45;;
74371;SDS011;62885;51.374;6.170;2024-02-14T09:17:37;5.80;;;2.25;;
74371;SDS011;62885;51.374;6.170;2024-02-14T09:20:05;5.60;;;1.92;;
74371;SDS011;62885;51.374;6.170;2024-02-14T09:22:37;4.13;;;2.20;;
74371;SDS011;62885;51.374;6.170;2024-02-14T09:25:03;4.70;;;2.10;;
74371;SDS011;62885;51.374;6.170;2024-02-14T09:27:31;4.00;;;1.75;;
74371;SDS011;62885;51.374;6.170;2024-02-14T09:29:57;6.43;;;1.98;;
74371;SDS011;62885;51.374;6.170;2024-02-14T09:32:23;5.65;;;2.70;;
74371;SDS011;62885;51.374;6.170;2024-02-14T09:34:48;7.50;;;3.50;;
74371;SDS011;62885;51.374;6.170;2024-02-14T09:37:13;5.68;;;2.30;;
74371;SDS011;62885;51.374;6.170;2024-02-14T09:39:39;4.50;;;1.67;;
74371;SDS011;62885;51.374;6.170;2024-02-14T09:42:08;5.75;;;2.28;;
74371;SDS011;62885;51.374;6.170;2024-02-14T09:44:36;6.18;;;1.90;;
74371;SDS011;62885;51.374;6.170;2024-02-14T09:47:03;5.80;;;2.20;;
74371;SDS011;62885;51.374;6.170;2024-02-14T09:49:30;3.78;;;2.03;;
74371;SDS011;62885;51.374;6.170;2024-02-14T09:51:56;3.83;;;1.52;;
74371;SDS011;62885;51.374;6.170;2024-02-14T09:54:23;6.32;;;2.00;;
74371;SDS011;62885;51.374;6.170;2024-02-14T09:56:50;4.65;;;1.90;;
74371;SDS011;62885;51.374;6.170;2024-02-14T09:59:21;5.00;;;1.90;;
74371;SDS011;62885;51.374;6.170;2024-02-14T10:01:47;5.53;;;2.00;;
74371;SDS011;62885;51.374;6.170;2024-02-14T10:04:17;6.45;;;2.70;;
74371;SDS011;62885;51.374;6.170;2024-02-14T10:06:44;4.03;;;2.15;;
74371;SDS011;62885;51.374;6.170;2024-02-14T10:09:10;5.03;;;2.38;;
74371;SDS011;62885;51.374;6.170;2024-02-14T10:11:36;6.95;;;2.95;;
74371;SDS011;62885;51.374;6.170;2024-02-14T10:14:04;8.57;;;4.50;;
74371;SDS011;62885;51.374;6.170;2024-02-14T10:16:31;7.60;;;2.72;;
74371;SDS011;62885;51.374;6.170;2024-02-14T10:18:56;5.45;;;2.55;;
74371;SDS011;62885;51.374;6.170;2024-02-14T10:21:22;6.05;;;3.00;;
74371;SDS011;62885;51.374;6.170;2024-02-14T10:23:50;4.13;;;2.10;;
74371;SDS011;62885;51.374;6.170;2024-02-14T10:26:17;5.70;;;1.83;;
74371;SDS011;62885;51.374;6.170;2024-02-14T10:28:43;6.75;;;2.17;;
74371;SDS011;62885;51.374;6.170;2024-02-14T10:31:20;5.97;;;2.40;;
74371;SDS011;62885;51.374;6.170;2024-02-14T10:33:46;4.90;;;2.10;;
74371;SDS011;62885;51.374;6.170;2024-02-14T10:36:12;5.25;;;1.92;;
74371;SDS011;62885;51.374;6.170;2024-02-14T10:38:37;3.60;;;1.75;;
74371;SDS011;62885;51.374;6.170;2024-02-14T10:41:04;3.92;;;1.85;;
74371;SDS011;62885;51.374;6.170;2024-02-14T10:43:30;3.08;;;1.55;;
74371;SDS011;62885;51.374;6.170;2024-02-14T10:45:56;5.18;;;1.95;;
74371;SDS011;62885;51.374;6.170;2024-02-14T10:48:25;3.92;;;1.85;;
74371;SDS011;62885;51.374;6.170;2024-02-14T10:50:54;3.88;;;1.70;;
74371;SDS011;62885;51.374;6.170;2024-02-14T10:53:20;4.47;;;1.52;;
74371;SDS011;62885;51.374;6.170;2024-02-14T10:55:48;2.45;;;1.38;;
74371;SDS011;62885;51.374;6.170;2024-02-14T10:58:17;3.03;;;1.50;;
74371;SDS011;62885;51.374;6.170;2024-02-14T11:00:46;5.40;;;1.75;;
74371;SDS011;62885;51.374;6.170;2024-02-14T11:03:12;4.57;;;1.63;;
74371;SDS011;62885;51.374;6.170;2024-02-14T11:05:47;6.78;;;1.88;;
74371;SDS011;62885;51.374;6.170;2024-02-14T11:08:13;2.83;;;1.60;;
74371;SDS011;62885;51.374;6.170;2024-02-14T11:10:40;3.53;;;1.48;;
74371;SDS011;62885;51.374;6.170;2024-02-14T11:13:09;3.13;;;1.50;;
74371;SDS011;62885;51.374;6.170;2024-02-14T11:15:35;4.07;;;1.70;;
74371;SDS011;62885;51.374;6.170;2024-02-14T11:18:04;4.40;;;1.70;;
74371;SDS011;62885;51.374;6.170;2024-02-14T11:20:32;4.80;;;1.45;;
74371;SDS011;62885;51.374;6.170;2024-02-14T11:23:03;3.03;;;1.45;;
74371;SDS011;62885;51.374;6.170;2024-02-14T11:25:31;5.45;;;1.77;;
74371;SDS011;62885;51.374;6.170;2024-02-14T11:27:59;5.95;;;1.63;;
74371;SDS011;62885;51.374;6.170;2024-02-14T11:30:30;4.28;;;1.60;;
74371;SDS011;62885;51.374;6.170;2024-02-14T11:33:12;3.10;;;1.70;;
74371;SDS011;62885;51.374;6.170;2024-02-14T11:35:41;2.85;;;1.63;;
74371;SDS011;62885;51.374;6.170;2024-02-14T11:38:08;3.10;;;1.35;;
74371;SDS011;62885;51.374;6.170;2024-02-14T11:40:34;4.20;;;1.60;;
74371;SDS011;62885;51.374;6.170;2024-02-14T11:43:00;3.33;;;1.85;;
74371;SDS011;62885;51.374;6.170;2024-02-14T11:45:26;2.92;;;1.60;;
74371;SDS011;62885;51.374;6.170;2024-02-14T11:47:53;7.60;;;1.92;;
74371;SDS011;62885;51.374;6.170;2024-02-14T11:50:18;6.47;;;1.80;;
74371;SDS011;62885;51.374;6.170;2024-02-14T11:52:44;4.80;;;1.90;;
74371;SDS011;62885;51.374;6.170;2024-02-14T11:55:09;5.82;;;2.00;;
74371;SDS011;62885;51.374;6.170;2024-02-14T11:57:38;4.20;;;1.50;;
74371;SDS011;62885;51.374;6.170;2024-02-14T12:00:03;4.53;;;1.98;;
74371;SDS011;62885;51.374;6.170;2024-02-14T12:02:29;5.43;;;1.80;;
74371;SDS011;62885;51.374;6.170;2024-02-14T12:04:55;4.00;;;1.70;;
74371;SDS011;62885;51.374;6.170;2024-02-14T12:07:22;3.38;;;1.40;;
74371;SDS011;62885;51.374;6.170;2024-02-14T12:09:48;4.13;;;2.00;;
74371;SDS011;62885;51.374;6.170;2024-02-14T12:12:14;2.80;;;1.60;;
74371;SDS011;62885;51.374;6.170;2024-02-14T12:14:40;3.10;;;1.40;;
74371;SDS011;62885;51.374;6.170;2024-02-14T12:17:08;4.47;;;1.55;;
74371;SDS011;62885;51.374;6.170;2024-02-14T12:19:35;4.75;;;2.40;;
74371;SDS011;62885;51.374;6.170;2024-02-14T12:22:02;4.30;;;1.88;;
74371;SDS011;62885;51.374;6.170;2024-02-14T12:24:36;2.63;;;1.40;;
74371;SDS011;62885;51.374;6.170;2024-02-14T12:27:04;3.70;;;1.35;;
74371;SDS011;62885;51.374;6.170;2024-02-14T12:29:29;3.88;;;1.45;;
74371;SDS011;62885;51.374;6.170;2024-02-14T12:32:04;2.67;;;1.42;;
74371;SDS011;62885;51.374;6.170;2024-02-14T12:34:31;4.20;;;1.52;;
74371;SDS011;62885;51.374;6.170;2024-02-14T12:36:57;3.78;;;1.73;;
74371;SDS011;62885;51.374;6.170;2024-02-14T12:39:23;5.57;;;1.40;;
74371;SDS011;62885;51.374;6.170;2024-02-14T12:41:49;2.78;;;1.40;;
74371;SDS011;62885;51.374;6.170;2024-02-14T12:44:15;4.20;;;1.40;;
74371;SDS011;62885;51.374;6.170;2024-02-14T12:46:40;4.07;;;1.40;;
74371;SDS011;62885;51.374;6.170;2024-02-14T12:49:05;3.80;;;1.60;;
74371;SDS011;62885;51.374;6.170;2024-02-14T12:51:31;4.05;;;1.23;;
74371;SDS011;62885;51.374;6.170;2024-02-14T12:53:56;2.40;;;1.38;;
74371;SDS011;62885;51.374;6.170;2024-02-14T12:56:21;2.35;;;1.30;;
74371;SDS011;62885;51.374;6.170;2024-02-14T12:58:47;5.00;;;1.30;;
74371;SDS011;62885;51.374;6.170;2024-02-14T13:01:13;4.57;;;1.90;;
74371;SDS011;62885;51.374;6.170;2024-02-14T13:03:39;3.38;;;1.25;;
74371;SDS011;62885;51.374;6.170;2024-02-14T13:06:05;4.72;;;1.27;;
74371;SDS011;62885;51.374;6.170;2024-02-14T13:08:30;2.42;;;1.23;;
74371;SDS011;62885;51.374;6.170;2024-02-14T13:10:56;2.10;;;1.20;;
74371;SDS011;62885;51.374;6.170;2024-02-14T13:13:22;2.03;;;1.20;;
74371;SDS011;62885;51.374;6.170;2024-02-14T13:15:47;2.08;;;1.58;;
74371;SDS011;62885;51.374;6.170;2024-02-14T13:18:13;2.53;;;1.40;;
74371;SDS011;62885;51.374;6.170;2024-02-14T13:20:38;2.45;;;0.98;;
74371;SDS011;62885;51.374;6.170;2024-02-14T13:23:04;2.35;;;1.08;;
74371;SDS011;62885;51.374;6.170;2024-02-14T13:25:34;1.95;;;1.00;;
74371;SDS011;62885;51.374;6.170;2024-02-14T13:28:01;1.20;;;0.85;;
74371;SDS011;62885;51.374;6.170;2024-02-14T13:30:27;1.48;;;0.98;;
74371;SDS011;62885;51.374;6.170;2024-02-14T13:32:52;4.97;;;1.10;;
74371;SDS011;62885;51.374;6.170;2024-02-14T13:35:17;2.13;;;0.98;;
74371;SDS011;62885;51.374;6.170;2024-02-14T13:37:43;1.30;;;0.75;;
74371;SDS011;62885;51.374;6.170;2024-02-14T13:40:10;1.73;;;0.80;;
74371;SDS011;62885;51.374;6.170;2024-02-14T13:42:36;3.05;;;0.90;;
74371;SDS011;62885;51.374;6.170;2024-02-14T13:45:05;2.45;;;1.23;;
74371;SDS011;62885;51.374;6.170;2024-02-14T13:47:35;1.50;;;0.68;;
74371;SDS011;62885;51.374;6.170;2024-02-14T13:50:01;1.75;;;0.77;;
74371;SDS011;62885;51.374;6.170;2024-02-14T13:52:28;1.95;;;1.08;;
74371;SDS011;62885;51.374;6.170;2024-02-14T13:54:54;2.28;;;1.15;;
74371;SDS011;62885;51.374;6.170;2024-02-14T13:57:19;1.83;;;0.88;;
74371;SDS011;62885;51.374;6.170;2024-02-14T13:59:46;1.50;;;0.80;;
74371;SDS011;62885;51.374;6.170;2024-02-14T14:02:11;0.50;;;0.43;;
74371;SDS011;62885;51.374;6.170;2024-02-14T14:04:38;1.88;;;0.95;;
74371;SDS011;62885;51.374;6.170;2024-02-14T14:07:03;2.00;;;0.90;;
74371;SDS011;62885;51.374;6.170;2024-02-14T14:09:29;2.28;;;0.90;;
74371;SDS011;62885;51.374;6.170;2024-02-14T14:11:57;1.35;;;0.73;;
74371;SDS011;62885;51.374;6.170;2024-02-14T14:14:23;0.82;;;0.68;;
74371;SDS011;62885;51.374;6.170;2024-02-14T14:16:52;1.40;;;1.00;;
74371;SDS011;62885;51.374;6.170;2024-02-14T14:19:18;2.78;;;0.93;;
74371;SDS011;62885;51.374;6.170;2024-02-14T14:21:44;0.90;;;0.80;;
74371;SDS011;62885;51.374;6.170;2024-02-14T14:24:09;1.52;;;0.95;;
74371;SDS011;62885;51.374;6.170;2024-02-14T14:26:35;1.33;;;0.70;;
74371;SDS011;62885;51.374;6.170;2024-02-14T14:29:01;3.20;;;1.45;;
74371;SDS011;62885;51.374;6.170;2024-02-14T14:31:27;2.55;;;1.27;;
74371;SDS011;62885;51.374;6.170;2024-02-14T14:33:52;2.08;;;0.90;;
74371;SDS011;62885;51.374;6.170;2024-02-14T14:36:18;2.42;;;0.85;;
74371;SDS011;62885;51.374;6.170;2024-02-14T14:38:44;1.45;;;0.80;;
74371;SDS011;62885;51.374;6.170;2024-02-14T14:41:10;2.63;;;0.82;;